Kezdőlap
METAR-TAF:

METAR-TAF

Repülőterek :

Kolozsvári nemzetközi repülőtér

Kolozsvár, Románia

földrajzi szélesség: 46-47N, földrajzi hosszúság: 023-34E, magasság: 410 m

Jelenlegi meteorológiai megfigyelések

A jelentés 23 perccel ezelõtt készült, 13:30 UTC
Déli szél 8 kt, dél-délkeleti és délnyugati között változik
Hőmérséklet 31°C
Páratartalom 33%
Légköri nyomás 1012 hPa
Látótávolság 10 km, vagy több
Kevés felhő 5000 lábon

METAR: LRCL 141330Z 19008KT 160V220 9999 FEW050 31/13 Q1012

Idő: 16:53 (13:53 UTC)

Előrejelzés

A jelentés 2 órával és 53 perccel ezelõtt készült, 11:00 UTC
Az előrejelzés 14-én 12 óra UTC és 14-én 21 óra UTC között érvényes
Délkeleti szél 12 kt
Látótávolság 10 km, vagy több
Kevés felhő 5000 lábon, Cumulonimbus.
14-én 16 óra UTC és 14-én 18 óra UTC között fokozatosan kialakuló
Különbözõ irányokból fújó szél 4 kt

TAF: LRCL 141100Z 1412/1421 14012KT 9999 FEW050CB BECMG 1416/1418 VRB04KT NSC

Meteorológiai megfigyelések és előrejelzések több, mint 4000 repülőtéren (METAR és TAF jelentéseket).

A térképen piros és sárga pontok jelzik az elérhető meteorológiai állomásokat.

Mozgassa az egeret a pont fölött, hogy megjelenjen az állomás neve.

Azután kattintson az időjárási megfigyelések és előrejelzések megtekintéséhez.

A térkép megváltoztatása: kattintson a fekete keresztel jelölt zöld gombra ráközelítéshez, a vonallal jelölt zöld gombra távolításhoz, vagy a zöld nyilakra a szomszédos térképek eléréséhez.


METAR-TAF: